createdAt,value
2019-04-24T00:01:05.763Z,7.00
2019-04-24T00:03:46.978Z,6.20
2019-04-24T00:08:35.887Z,5.87
2019-04-24T00:14:10.448Z,6.27
2019-04-24T00:16:27.015Z,5.60
2019-04-24T00:19:21.535Z,5.83
2019-04-24T00:24:14.481Z,6.17
2019-04-24T00:26:56.046Z,5.40
2019-04-24T00:29:19.540Z,5.80
2019-04-24T00:31:42.129Z,6.53
2019-04-24T00:36:54.641Z,5.60
2019-04-24T00:41:53.917Z,5.80
2019-04-24T00:46:56.857Z,5.43
2019-04-24T00:54:15.185Z,5.97
2019-04-24T00:56:56.960Z,5.50
2019-04-24T00:59:24.877Z,5.87
2019-04-24T01:01:56.285Z,5.23
2019-04-24T01:07:32.267Z,5.60
2019-04-24T01:10:07.153Z,6.00
2019-04-24T01:12:27.938Z,5.27
2019-04-24T01:14:59.279Z,6.03
2019-04-24T01:17:30.485Z,5.90
2019-04-24T01:25:12.532Z,6.33
2019-04-24T01:27:24.902Z,6.67
2019-04-24T01:30:11.236Z,5.20
2019-04-24T01:32:34.933Z,5.50
2019-04-24T01:34:58.583Z,6.13
2019-04-24T01:37:38.589Z,5.60
2019-04-24T01:40:06.779Z,6.00
2019-04-24T01:45:18.731Z,5.90
2019-04-24T01:50:15.831Z,5.70
2019-04-24T01:55:14.070Z,6.30
2019-04-24T01:58:02.698Z,5.37
2019-04-24T02:00:14.192Z,7.07
2019-04-24T02:05:16.499Z,6.40
2019-04-24T02:08:11.172Z,5.60
2019-04-24T02:15:34.641Z,6.70
2019-04-24T02:20:37.669Z,6.20
2019-04-24T02:28:18.730Z,6.10
2019-04-24T02:33:45.816Z,7.73
2019-04-24T02:36:01.689Z,6.13
2019-04-24T02:41:00.356Z,6.30
2019-04-24T02:46:09.691Z,6.13
2019-04-24T02:51:05.617Z,6.60
2019-04-24T02:53:41.299Z,6.43
2019-04-24T02:58:51.471Z,6.43
2019-04-24T03:01:17.419Z,6.13
2019-04-24T03:03:42.578Z,5.60
2019-04-24T03:08:51.795Z,7.10
2019-04-24T03:11:14.228Z,5.87
2019-04-24T03:19:39.813Z,6.60
2019-04-24T03:24:27.516Z,6.43
2019-04-24T03:29:41.492Z,6.87
2019-04-24T03:32:16.551Z,6.03
2019-04-24T03:39:56.186Z,5.80
2019-04-24T03:47:09.804Z,6.53
2019-04-24T03:54:56.205Z,6.60
2019-04-24T03:57:44.723Z,6.53
2019-04-24T04:00:24.964Z,6.53
2019-04-24T04:05:23.500Z,6.90
2019-04-24T04:10:27.968Z,7.27
2019-04-24T04:18:28.177Z,6.30
2019-04-24T04:23:38.025Z,7.27
2019-04-24T04:28:02.277Z,7.10
2019-04-24T04:38:33.548Z,8.00
2019-04-24T04:41:21.289Z,6.50
2019-04-24T04:43:57.988Z,6.23
2019-04-24T04:51:40.034Z,7.07
2019-04-24T04:54:07.208Z,7.37
2019-04-24T04:59:13.679Z,6.03
2019-04-24T05:02:08.370Z,7.57
2019-04-24T05:04:42.378Z,6.20
2019-04-24T05:15:00.496Z,6.73
2019-04-24T05:17:07.945Z,6.50
2019-04-24T05:19:35.095Z,6.93
2019-04-24T05:22:08.160Z,6.13
2019-04-24T05:33:03.411Z,6.60
2019-04-24T05:35:34.120Z,7.70
2019-04-24T05:37:59.602Z,7.00
2019-04-24T05:40:33.311Z,6.47
2019-04-24T05:42:57.232Z,6.93
2019-04-24T05:45:29.006Z,7.57
2019-04-24T05:50:48.691Z,7.67
2019-04-24T05:53:17.050Z,6.73
2019-04-24T05:55:56.104Z,6.23
2019-04-24T06:01:06.577Z,7.33
2019-04-24T06:04:04.858Z,9.17
2019-04-24T06:09:08.342Z,7.13
2019-04-24T06:11:44.884Z,6.73
2019-04-24T06:14:26.984Z,8.37
2019-04-24T06:16:59.783Z,7.13
2019-04-24T06:19:34.261Z,7.03
2019-04-24T06:22:03.455Z,5.97
2019-04-24T06:27:01.945Z,7.13
2019-04-24T06:34:53.433Z,6.80
2019-04-24T06:37:15.354Z,7.10
2019-04-24T06:39:55.703Z,6.40
2019-04-24T06:42:31.134Z,6.03
2019-04-24T06:45:13.805Z,6.90
2019-04-24T06:49:54.974Z,7.13
2019-04-24T06:54:53.725Z,5.93
2019-04-24T06:57:40.253Z,6.30
2019-04-24T07:05:22.950Z,6.27
2019-04-24T07:10:47.154Z,9.43
2019-04-24T07:12:56.568Z,7.20
2019-04-24T07:15:52.038Z,5.47
2019-04-24T07:23:13.130Z,7.03
2019-04-24T07:28:32.424Z,7.00
2019-04-24T07:31:05.014Z,6.50
2019-04-24T07:33:30.099Z,5.87
2019-04-24T07:38:45.850Z,7.70
2019-04-24T07:41:33.819Z,6.87
2019-04-24T07:44:08.782Z,6.37
2019-04-24T07:46:43.940Z,5.27
2019-04-24T07:49:14.667Z,6.07
2019-04-24T07:51:46.011Z,6.10
2019-04-24T07:56:59.323Z,7.13
2019-04-24T07:59:43.415Z,7.30
2019-04-24T08:04:49.945Z,6.50
2019-04-24T08:07:11.945Z,6.70
2019-04-24T08:12:18.279Z,5.60
2019-04-24T08:17:33.173Z,5.30
2019-04-24T08:20:07.926Z,5.90
2019-04-24T08:22:28.260Z,6.07
2019-04-24T08:29:54.943Z,5.43
2019-04-24T08:32:25.288Z,6.07
2019-04-24T08:34:51.675Z,5.43
2019-04-24T08:37:33.345Z,5.40
2019-04-24T08:42:59.905Z,5.00
2019-04-24T08:48:14.560Z,5.67
2019-04-24T08:55:46.721Z,5.77
2019-04-24T08:58:15.067Z,4.40
2019-04-24T09:01:00.560Z,5.33
2019-04-24T09:06:00.689Z,5.70
2019-04-24T09:08:48.589Z,4.90
2019-04-24T09:11:22.859Z,5.40
2019-04-24T09:16:41.088Z,5.30
2019-04-24T09:19:04.431Z,5.33
2019-04-24T09:21:39.629Z,5.83
2019-04-24T09:27:07.558Z,4.80
2019-04-24T09:29:55.758Z,4.23
2019-04-24T09:32:23.778Z,4.13
2019-04-24T09:34:25.243Z,4.17
2019-04-24T09:37:00.611Z,3.70
2019-04-24T09:39:42.338Z,3.63
2019-04-24T09:42:33.078Z,3.50
2019-04-24T09:44:35.021Z,3.77
2019-04-24T09:47:28.837Z,3.73
2019-04-24T09:49:36.753Z,3.30
2019-04-24T09:52:09.820Z,3.70
2019-04-24T09:54:56.722Z,2.73
2019-04-24T09:59:57.543Z,3.43
2019-04-24T10:07:29.920Z,4.13
2019-04-24T10:15:12.086Z,3.80
2019-04-24T10:20:15.056Z,3.20
2019-04-24T10:22:57.936Z,3.73
2019-04-24T10:25:22.067Z,3.27
2019-04-24T10:30:35.322Z,3.50
2019-04-24T10:33:15.957Z,3.33
2019-04-24T10:35:49.681Z,3.90
2019-04-24T10:38:31.165Z,3.40
2019-04-24T10:41:01.813Z,3.37
2019-04-24T10:43:36.344Z,3.13
2019-04-24T10:46:42.189Z,2.97
2019-04-24T10:49:36.073Z,2.97
2019-04-24T10:52:06.867Z,2.60
2019-04-24T10:54:33.157Z,2.80
2019-04-24T10:56:56.959Z,3.30
2019-04-24T10:59:34.027Z,2.90
2019-04-24T11:07:33.021Z,3.37
2019-04-24T11:10:25.867Z,3.60
2019-04-24T11:12:52.217Z,2.77
2019-04-24T11:15:36.660Z,3.53
2019-04-24T11:18:00.108Z,4.30
2019-04-24T11:20:42.320Z,3.63
2019-04-24T11:23:15.415Z,4.50
2019-04-24T11:31:11.854Z,3.33
2019-04-24T11:34:13.738Z,2.80
2019-04-24T11:39:13.883Z,3.07
2019-04-24T11:49:42.765Z,3.20
2019-04-24T11:52:11.392Z,3.30
2019-04-24T11:54:52.640Z,3.37
2019-04-24T11:57:20.044Z,3.80
2019-04-24T11:59:15.416Z,4.20
2019-04-24T12:02:25.259Z,3.10
2019-04-24T12:05:02.424Z,3.33
2019-04-24T12:07:38.515Z,3.97
2019-04-24T12:10:14.423Z,3.07
2019-04-24T12:13:03.004Z,3.57
2019-04-24T12:15:42.121Z,3.40
2019-04-24T12:18:33.481Z,3.67
2019-04-24T12:21:01.203Z,3.93
2019-04-24T12:23:33.394Z,3.37
2019-04-24T12:26:12.323Z,3.37
2019-04-24T12:28:27.690Z,3.80
2019-04-24T12:33:36.331Z,4.03
2019-04-24T12:36:00.226Z,3.47
2019-04-24T12:38:47.162Z,4.00
2019-04-24T12:41:18.931Z,3.40
2019-04-24T12:46:31.037Z,3.60
2019-04-24T12:49:02.508Z,3.40
2019-04-24T12:51:37.610Z,3.63
2019-04-24T12:54:08.838Z,4.47
2019-04-24T12:57:07.317Z,4.07
2019-04-24T13:01:59.759Z,4.00
2019-04-24T13:04:52.310Z,3.20
2019-04-24T13:07:06.807Z,3.57
2019-04-24T13:09:51.208Z,3.20
2019-04-24T13:12:41.896Z,3.50
2019-04-24T13:15:03.927Z,3.70
2019-04-24T13:19:33.362Z,4.10
2019-04-24T13:22:09.867Z,2.57
2019-04-24T13:24:59.349Z,3.10
2019-04-24T13:27:58.741Z,3.23
2019-04-24T13:30:21.082Z,3.60
2019-04-24T13:33:03.397Z,3.23
2019-04-24T13:40:32.174Z,3.00
2019-04-24T13:43:06.780Z,2.80
2019-04-24T13:45:39.401Z,2.80
2019-04-24T13:53:29.455Z,2.23
2019-04-24T13:55:49.541Z,3.10
2019-04-24T13:58:20.456Z,2.10
2019-04-24T14:05:53.067Z,2.13
2019-04-24T14:11:19.125Z,2.30
2019-04-24T14:15:55.054Z,2.50
2019-04-24T14:18:15.450Z,3.20
2019-04-24T14:20:57.959Z,3.17
2019-04-24T14:23:33.756Z,2.27
2019-04-24T14:26:06.891Z,3.27
2019-04-24T14:28:40.764Z,3.37
2019-04-24T14:31:07.173Z,2.70
2019-04-24T14:33:39.121Z,3.03
2019-04-24T14:36:09.920Z,2.60
2019-04-24T14:38:48.123Z,2.60
2019-04-24T14:44:12.561Z,3.37
2019-04-24T14:46:34.052Z,2.30
2019-04-24T14:49:05.364Z,2.00
2019-04-24T14:51:24.428Z,2.27
2019-04-24T14:54:09.902Z,2.77
2019-04-24T14:56:25.802Z,2.20
2019-04-24T14:59:02.959Z,2.07
2019-04-24T15:01:29.823Z,2.07
2019-04-24T15:04:07.584Z,2.97
2019-04-24T15:09:04.676Z,2.43
2019-04-24T15:11:27.814Z,2.00
2019-04-24T15:14:10.256Z,2.67
2019-04-24T15:16:44.200Z,2.20
2019-04-24T15:19:13.351Z,2.93
2019-04-24T15:21:46.492Z,2.10
2019-04-24T15:24:35.111Z,2.20
2019-04-24T15:31:42.991Z,2.40
2019-04-24T15:34:24.441Z,2.00
2019-04-24T15:36:32.877Z,2.03
2019-04-24T15:39:16.821Z,2.13
2019-04-24T15:44:12.546Z,2.63
2019-04-24T15:46:47.074Z,2.60
2019-04-24T15:49:11.406Z,2.70
2019-04-24T15:51:32.804Z,2.07
2019-04-24T15:53:43.419Z,2.47
2019-04-24T15:56:12.434Z,2.77
2019-04-24T15:58:51.546Z,3.50
2019-04-24T16:01:57.463Z,3.00
2019-04-24T16:06:15.583Z,2.23
2019-04-24T16:08:44.862Z,3.90
2019-04-24T16:11:13.562Z,2.60
2019-04-24T16:13:49.622Z,2.37
2019-04-24T16:16:49.649Z,5.30
2019-04-24T16:19:32.945Z,2.23
2019-04-24T16:21:37.494Z,1.97
2019-04-24T16:26:45.443Z,2.40
2019-04-24T16:44:28.639Z,2.63
2019-04-24T16:46:54.143Z,6.13
2019-04-24T16:49:34.825Z,7.17
2019-04-24T16:52:09.435Z,4.57
2019-04-24T16:54:23.646Z,8.90
2019-04-24T16:59:36.174Z,6.57
2019-04-24T17:02:12.432Z,5.30
2019-04-24T17:04:44.196Z,5.07
2019-04-24T17:12:11.868Z,5.20
2019-04-24T17:14:49.582Z,4.77
2019-04-24T17:27:16.716Z,4.97
2019-04-24T17:36:53.026Z,5.10
2019-04-24T17:46:15.177Z,4.73
2019-04-24T17:52:49.872Z,5.67
2019-04-24T17:57:51.683Z,3.80
2019-04-24T18:00:22.007Z,2.30
2019-04-24T18:02:51.334Z,2.90
2019-04-24T18:05:21.727Z,2.33
2019-04-24T18:10:41.745Z,1.93
2019-04-24T18:13:13.237Z,1.83
2019-04-24T18:15:42.312Z,1.70
2019-04-24T18:18:13.207Z,2.10
2019-04-24T18:20:42.044Z,2.20
2019-04-24T18:23:14.345Z,1.53
2019-04-24T18:25:51.669Z,1.53
2019-04-24T18:28:21.840Z,1.33
2019-04-24T18:30:51.243Z,1.60
2019-04-24T18:33:21.229Z,2.70
2019-04-24T18:35:51.498Z,2.33
2019-04-24T18:38:21.436Z,3.43
2019-04-24T18:40:51.657Z,3.70
2019-04-24T18:43:22.171Z,4.10
2019-04-24T18:45:51.624Z,3.10
2019-04-24T18:48:22.699Z,3.83
2019-04-24T18:50:51.742Z,1.80
2019-04-24T18:53:21.478Z,1.13
2019-04-24T18:55:51.682Z,1.30
2019-04-24T18:58:22.087Z,0.90
2019-04-24T19:00:51.931Z,1.00
2019-04-24T19:03:23.410Z,0.70
2019-04-24T19:05:52.532Z,0.90
2019-04-24T19:08:22.432Z,0.47
2019-04-24T19:10:51.548Z,0.90
2019-04-24T19:13:22.099Z,0.60
2019-04-24T19:15:51.281Z,0.50
2019-04-24T19:18:22.072Z,0.60
2019-04-24T19:20:53.144Z,0.47
2019-04-24T19:23:22.248Z,0.70
2019-04-24T19:25:53.161Z,0.70
2019-04-24T19:28:21.616Z,0.60
2019-04-24T19:30:53.091Z,0.70
2019-04-24T19:33:25.812Z,0.70
2019-04-24T19:35:56.755Z,0.50
2019-04-24T19:38:41.860Z,0.90
2019-04-24T19:41:12.794Z,1.73
2019-04-24T19:43:41.148Z,0.90
2019-04-24T19:46:12.887Z,1.10
2019-04-24T19:48:41.835Z,0.87
2019-04-24T19:51:10.998Z,0.60
2019-04-24T19:53:39.841Z,0.70
2019-04-24T19:56:09.986Z,0.87
2019-04-24T19:58:42.219Z,0.50
2019-04-24T20:01:13.427Z,0.70
2019-04-24T20:03:43.211Z,0.70
2019-04-24T20:06:14.875Z,0.80
2019-04-24T20:08:44.020Z,1.00
2019-04-24T20:11:20.502Z,1.17
2019-04-24T20:13:49.404Z,0.80
2019-04-24T20:16:22.943Z,0.87
2019-04-24T20:18:52.133Z,0.80
2019-04-24T20:21:22.291Z,0.70
2019-04-24T20:23:52.418Z,0.90
2019-04-24T20:26:23.130Z,0.50
2019-04-24T20:28:51.976Z,0.60
2019-04-24T20:31:22.226Z,0.53
2019-04-24T20:33:51.444Z,0.97
2019-04-24T20:36:23.279Z,0.50
2019-04-24T20:38:52.453Z,0.60
2019-04-24T20:41:23.129Z,0.73
2019-04-24T20:43:51.944Z,0.40
2019-04-24T20:46:21.848Z,0.50
2019-04-24T20:48:52.360Z,1.07
2019-04-24T20:51:23.252Z,0.60
2019-04-24T20:53:55.361Z,0.73
2019-04-24T20:56:27.766Z,0.70
2019-04-24T20:58:58.615Z,0.73
2019-04-24T21:04:22.750Z,0.60
2019-04-24T21:06:52.979Z,0.67
2019-04-24T21:09:25.453Z,0.63
2019-04-24T21:11:53.710Z,1.00
2019-04-24T21:14:22.557Z,0.67
2019-04-24T21:16:51.270Z,0.53
2019-04-24T21:19:21.345Z,0.67
2019-04-24T21:21:51.743Z,0.43
2019-04-24T21:24:24.503Z,0.67
2019-04-24T21:26:53.193Z,0.47
2019-04-24T21:29:23.576Z,0.60
2019-04-24T21:31:53.652Z,0.40
2019-04-24T21:34:22.596Z,0.50
2019-04-24T21:36:52.139Z,0.47
2019-04-24T21:39:23.199Z,0.60
2019-04-24T21:41:51.617Z,0.67
2019-04-24T21:44:24.673Z,0.63
2019-04-24T21:46:52.499Z,0.50
2019-04-24T21:49:22.478Z,0.50
2019-04-24T21:51:51.748Z,0.50
2019-04-24T21:54:21.430Z,0.40
2019-04-24T21:56:51.344Z,0.53
2019-04-24T21:59:21.599Z,0.40
2019-04-24T22:01:54.956Z,0.60
2019-04-24T22:04:28.297Z,2.10
2019-04-24T22:07:01.736Z,0.40
2019-04-24T22:09:32.556Z,0.60
2019-04-24T22:12:02.562Z,0.50
2019-04-24T22:14:32.793Z,0.60
2019-04-24T22:17:01.767Z,0.40
2019-04-24T22:19:31.145Z,0.50
2019-04-24T22:22:11.412Z,0.37
2019-04-24T22:24:53.893Z,0.50
2019-04-24T22:27:37.250Z,0.30
2019-04-24T22:30:16.448Z,0.37
2019-04-24T22:32:45.110Z,0.40
2019-04-24T22:35:15.866Z,0.63
2019-04-24T22:37:44.547Z,0.40
2019-04-24T22:40:16.969Z,0.43
2019-04-24T22:42:45.535Z,0.60
2019-04-24T22:45:15.447Z,0.50
2019-04-24T22:47:44.193Z,0.40
2019-04-24T22:50:13.471Z,0.50
2019-04-24T22:52:42.149Z,0.50
2019-04-24T22:55:16.723Z,0.50
2019-04-24T22:57:45.417Z,0.40
2019-04-24T23:00:18.582Z,0.70
2019-04-24T23:02:47.274Z,0.60
2019-04-24T23:05:16.067Z,0.40
2019-04-24T23:07:44.778Z,0.40
2019-04-24T23:10:14.296Z,0.47
2019-04-24T23:12:44.444Z,0.50
2019-04-24T23:15:13.839Z,0.40
2019-04-24T23:17:42.630Z,0.60
2019-04-24T23:20:11.629Z,0.40
2019-04-24T23:22:47.720Z,0.70
2019-04-24T23:25:23.436Z,1.07
2019-04-24T23:28:05.401Z,0.70
2019-04-24T23:30:44.868Z,0.60
2019-04-24T23:33:17.767Z,0.33
2019-04-24T23:35:46.474Z,0.60
2019-04-24T23:38:15.275Z,0.83
2019-04-24T23:40:44.403Z,0.60
2019-04-24T23:43:13.346Z,0.70
2019-04-24T23:45:42.541Z,0.40
2019-04-24T23:48:11.499Z,0.70
2019-04-24T23:50:41.765Z,0.50
2019-04-24T23:53:11.418Z,1.07
2019-04-24T23:55:40.179Z,0.57
2019-04-24T23:58:08.882Z,0.57
